sensor_id;sensor_type;location;lat;lon;timestamp;temperature;humidity
69531;SHT31;56727;47.188;8.840;2024-03-07T00:00:05;5.84;70.94
69531;SHT31;56727;47.188;8.840;2024-03-07T00:03:00;5.82;70.94
69531;SHT31;56727;47.188;8.840;2024-03-07T00:05:27;5.80;70.84
69531;SHT31;56727;47.188;8.840;2024-03-07T00:07:54;5.79;70.83
69531;SHT31;56727;47.188;8.840;2024-03-07T00:10:20;5.77;70.82
69531;SHT31;56727;47.188;8.840;2024-03-07T00:12:47;5.75;70.92
69531;SHT31;56727;47.188;8.840;2024-03-07T00:15:14;5.73;70.85
69531;SHT31;56727;47.188;8.840;2024-03-07T00:17:41;5.69;71.04
69531;SHT31;56727;47.188;8.840;2024-03-07T00:20:09;5.72;71.37
69531;SHT31;56727;47.188;8.840;2024-03-07T00:22:41;5.77;71.65
69531;SHT31;56727;47.188;8.840;2024-03-07T00:25:08;5.82;71.83
69531;SHT31;56727;47.188;8.840;2024-03-07T00:27:36;5.88;71.91
69531;SHT31;56727;47.188;8.840;2024-03-07T00:30:05;5.93;72.01
69531;SHT31;56727;47.188;8.840;2024-03-07T00:32:35;5.99;72.02
69531;SHT31;56727;47.188;8.840;2024-03-07T00:35:05;6.03;72.03
69531;SHT31;56727;47.188;8.840;2024-03-07T00:37:34;6.04;71.81
69531;SHT31;56727;47.188;8.840;2024-03-07T00:40:02;6.04;71.53
69531;SHT31;56727;47.188;8.840;2024-03-07T00:42:30;6.03;71.34
69531;SHT31;56727;47.188;8.840;2024-03-07T00:44:56;6.03;71.10
69531;SHT31;56727;47.188;8.840;2024-03-07T00:47:23;6.00;70.93
69531;SHT31;56727;47.188;8.840;2024-03-07T00:49:50;5.97;70.91
69531;SHT31;56727;47.188;8.840;2024-03-07T00:55:41;5.92;70.87
69531;SHT31;56727;47.188;8.840;2024-03-07T00:58:07;5.88;70.81
69531;SHT31;56727;47.188;8.840;2024-03-07T01:00:34;5.84;70.84
69531;SHT31;56727;47.188;8.840;2024-03-07T01:03:00;5.81;70.76
69531;SHT31;56727;47.188;8.840;2024-03-07T01:05:27;5.76;70.91
69531;SHT31;56727;47.188;8.840;2024-03-07T01:07:54;5.73;70.82
69531;SHT31;56727;47.188;8.840;2024-03-07T01:10:21;5.68;70.98
69531;SHT31;56727;47.188;8.840;2024-03-07T01:12:48;5.64;71.06
69531;SHT31;56727;47.188;8.840;2024-03-07T01:15:16;5.61;71.17
69531;SHT31;56727;47.188;8.840;2024-03-07T01:17:42;5.63;71.36
69531;SHT31;56727;47.188;8.840;2024-03-07T01:20:10;5.65;71.72
69531;SHT31;56727;47.188;8.840;2024-03-07T01:22:37;5.69;72.02
69531;SHT31;56727;47.188;8.840;2024-03-07T01:25:04;5.73;72.17
69531;SHT31;56727;47.188;8.840;2024-03-07T01:27:31;5.76;72.30
69531;SHT31;56727;47.188;8.840;2024-03-07T01:29:58;5.82;72.42
69531;SHT31;56727;47.188;8.840;2024-03-07T01:32:24;5.86;72.39
69531;SHT31;56727;47.188;8.840;2024-03-07T01:34:51;5.88;72.34
69531;SHT31;56727;47.188;8.840;2024-03-07T01:37:17;5.92;72.16
69531;SHT31;56727;47.188;8.840;2024-03-07T01:39:44;5.93;71.86
69531;SHT31;56727;47.188;8.840;2024-03-07T01:42:10;5.93;71.62
69531;SHT31;56727;47.188;8.840;2024-03-07T01:44:37;5.91;71.43
69531;SHT31;56727;47.188;8.840;2024-03-07T01:47:04;5.90;71.39
69531;SHT31;56727;47.188;8.840;2024-03-07T01:49:31;5.89;71.35
69531;SHT31;56727;47.188;8.840;2024-03-07T01:51:58;5.87;71.21
69531;SHT31;56727;47.188;8.840;2024-03-07T01:54:26;5.84;71.14
69531;SHT31;56727;47.188;8.840;2024-03-07T01:56:54;5.81;71.08
69531;SHT31;56727;47.188;8.840;2024-03-07T01:59:22;5.77;71.21
69531;SHT31;56727;47.188;8.840;2024-03-07T02:01:48;5.74;71.26
69531;SHT31;56727;47.188;8.840;2024-03-07T02:04:16;5.72;71.29
69531;SHT31;56727;47.188;8.840;2024-03-07T02:06:43;5.69;71.38
69531;SHT31;56727;47.188;8.840;2024-03-07T02:09:10;5.69;71.23
69531;SHT31;56727;47.188;8.840;2024-03-07T02:11:37;5.69;71.21
69531;SHT31;56727;47.188;8.840;2024-03-07T02:14:04;5.67;71.31
69531;SHT31;56727;47.188;8.840;2024-03-07T02:16:30;5.65;71.29
69531;SHT31;56727;47.188;8.840;2024-03-07T02:18:57;5.68;71.60
69531;SHT31;56727;47.188;8.840;2024-03-07T02:21:26;5.71;71.94
69531;SHT31;56727;47.188;8.840;2024-03-07T02:23:52;5.74;72.20
69531;SHT31;56727;47.188;8.840;2024-03-07T02:26:19;5.79;72.36
69531;SHT31;56727;47.188;8.840;2024-03-07T02:28:45;5.83;72.43
69531;SHT31;56727;47.188;8.840;2024-03-07T02:31:12;5.87;72.54
69531;SHT31;56727;47.188;8.840;2024-03-07T02:33:38;5.93;72.55
69531;SHT31;56727;47.188;8.840;2024-03-07T02:36:06;5.97;72.52
69531;SHT31;56727;47.188;8.840;2024-03-07T02:38:33;5.99;72.34
69531;SHT31;56727;47.188;8.840;2024-03-07T02:41:00;6.01;72.10
69531;SHT31;56727;47.188;8.840;2024-03-07T02:43:27;6.01;71.97
69531;SHT31;56727;47.188;8.840;2024-03-07T02:45:53;6.01;71.85
69531;SHT31;56727;47.188;8.840;2024-03-07T02:48:20;6.01;71.81
69531;SHT31;56727;47.188;8.840;2024-03-07T02:50:47;6.03;71.58
69531;SHT31;56727;47.188;8.840;2024-03-07T02:53:13;6.03;71.42
69531;SHT31;56727;47.188;8.840;2024-03-07T02:55:40;6.01;71.35
69531;SHT31;56727;47.188;8.840;2024-03-07T02:58:07;6.01;71.28
69531;SHT31;56727;47.188;8.840;2024-03-07T03:00:33;5.99;71.28
69531;SHT31;56727;47.188;8.840;2024-03-07T03:03:01;5.98;71.20
69531;SHT31;56727;47.188;8.840;2024-03-07T03:05:27;5.96;71.27
69531;SHT31;56727;47.188;8.840;2024-03-07T03:07:54;5.94;71.24
69531;SHT31;56727;47.188;8.840;2024-03-07T03:10:24;5.93;71.24
69531;SHT31;56727;47.188;8.840;2024-03-07T03:12:52;5.91;71.21
69531;SHT31;56727;47.188;8.840;2024-03-07T03:15:20;5.88;71.23
69531;SHT31;56727;47.188;8.840;2024-03-07T03:17:47;5.86;71.20
69531;SHT31;56727;47.188;8.840;2024-03-07T03:20:14;5.87;71.24
69531;SHT31;56727;47.188;8.840;2024-03-07T03:22:53;5.87;71.55
69531;SHT31;56727;47.188;8.840;2024-03-07T03:25:20;5.86;71.88
69531;SHT31;56727;47.188;8.840;2024-03-07T03:27:47;5.87;72.15
69531;SHT31;56727;47.188;8.840;2024-03-07T03:30:15;5.90;72.45
69531;SHT31;56727;47.188;8.840;2024-03-07T03:32:45;5.90;72.39
69531;SHT31;56727;47.188;8.840;2024-03-07T03:35:14;5.94;72.51
69531;SHT31;56727;47.188;8.840;2024-03-07T03:37:42;5.96;72.52
69531;SHT31;56727;47.188;8.840;2024-03-07T03:40:11;5.97;72.51
69531;SHT31;56727;47.188;8.840;2024-03-07T03:42:39;5.95;72.44
69531;SHT31;56727;47.188;8.840;2024-03-07T03:45:08;5.93;72.18
69531;SHT31;56727;47.188;8.840;2024-03-07T03:47:41;5.93;71.95
69531;SHT31;56727;47.188;8.840;2024-03-07T03:50:09;5.92;71.81
69531;SHT31;56727;47.188;8.840;2024-03-07T03:52:39;5.89;71.69
69531;SHT31;56727;47.188;8.840;2024-03-07T03:55:07;5.89;71.55
69531;SHT31;56727;47.188;8.840;2024-03-07T03:57:38;5.89;71.44
69531;SHT31;56727;47.188;8.840;2024-03-07T04:00:08;5.86;71.44
69531;SHT31;56727;47.188;8.840;2024-03-07T04:02:40;5.84;71.48
69531;SHT31;56727;47.188;8.840;2024-03-07T04:05:08;5.81;71.52
69531;SHT31;56727;47.188;8.840;2024-03-07T04:07:37;5.77;71.57
69531;SHT31;56727;47.188;8.840;2024-03-07T04:10:04;5.75;71.54
69531;SHT31;56727;47.188;8.840;2024-03-07T04:12:38;5.73;71.50
69531;SHT31;56727;47.188;8.840;2024-03-07T04:15:10;5.73;71.48
69531;SHT31;56727;47.188;8.840;2024-03-07T04:17:40;5.70;71.59
69531;SHT31;56727;47.188;8.840;2024-03-07T04:20:06;5.67;71.65
69531;SHT31;56727;47.188;8.840;2024-03-07T04:22:37;5.71;71.89
69531;SHT31;56727;47.188;8.840;2024-03-07T04:25:07;5.77;72.19
69531;SHT31;56727;47.188;8.840;2024-03-07T04:27:36;5.81;72.37
69531;SHT31;56727;47.188;8.840;2024-03-07T04:30:03;5.87;72.54
69531;SHT31;56727;47.188;8.840;2024-03-07T04:32:31;5.91;72.66
69531;SHT31;56727;47.188;8.840;2024-03-07T04:34:58;5.95;72.68
69531;SHT31;56727;47.188;8.840;2024-03-07T04:37:25;5.99;72.69
69531;SHT31;56727;47.188;8.840;2024-03-07T04:39:53;6.00;72.53
69531;SHT31;56727;47.188;8.840;2024-03-07T04:42:20;6.01;72.30
69531;SHT31;56727;47.188;8.840;2024-03-07T04:44:46;6.03;72.12
69531;SHT31;56727;47.188;8.840;2024-03-07T04:47:12;6.04;71.87
69531;SHT31;56727;47.188;8.840;2024-03-07T04:49:39;6.04;71.72
69531;SHT31;56727;47.188;8.840;2024-03-07T04:52:07;6.03;71.62
69531;SHT31;56727;47.188;8.840;2024-03-07T04:54:33;6.01;71.61
69531;SHT31;56727;47.188;8.840;2024-03-07T04:57:00;5.99;71.44
69531;SHT31;56727;47.188;8.840;2024-03-07T04:59:27;5.97;71.45
69531;SHT31;56727;47.188;8.840;2024-03-07T05:01:53;5.95;71.48
69531;SHT31;56727;47.188;8.840;2024-03-07T05:04:20;5.93;71.43
69531;SHT31;56727;47.188;8.840;2024-03-07T05:06:46;5.93;71.33
69531;SHT31;56727;47.188;8.840;2024-03-07T05:09:14;5.90;71.45
69531;SHT31;56727;47.188;8.840;2024-03-07T05:11:51;5.88;71.52
69531;SHT31;56727;47.188;8.840;2024-03-07T05:14:18;5.89;71.73
69531;SHT31;56727;47.188;8.840;2024-03-07T05:16:45;5.89;72.12
69531;SHT31;56727;47.188;8.840;2024-03-07T05:19:12;5.90;72.50
69531;SHT31;56727;47.188;8.840;2024-03-07T05:21:38;5.92;72.68
69531;SHT31;56727;47.188;8.840;2024-03-07T05:24:07;5.93;72.69
69531;SHT31;56727;47.188;8.840;2024-03-07T05:26:34;5.92;72.22
69531;SHT31;56727;47.188;8.840;2024-03-07T05:29:07;5.91;71.91
69531;SHT31;56727;47.188;8.840;2024-03-07T05:31:36;5.89;71.53
69531;SHT31;56727;47.188;8.840;2024-03-07T05:34:04;5.86;71.48
69531;SHT31;56727;47.188;8.840;2024-03-07T05:36:34;5.85;71.29
69531;SHT31;56727;47.188;8.840;2024-03-07T05:39:02;5.81;71.36
69531;SHT31;56727;47.188;8.840;2024-03-07T05:41:38;5.78;71.20
69531;SHT31;56727;47.188;8.840;2024-03-07T05:44:05;5.76;71.30
69531;SHT31;56727;47.188;8.840;2024-03-07T05:46:36;5.75;71.34
69531;SHT31;56727;47.188;8.840;2024-03-07T05:49:08;5.74;71.31
69531;SHT31;56727;47.188;8.840;2024-03-07T05:51:34;5.74;71.34
69531;SHT31;56727;47.188;8.840;2024-03-07T05:54:02;5.78;71.59
69531;SHT31;56727;47.188;8.840;2024-03-07T05:56:33;5.81;71.96
69531;SHT31;56727;47.188;8.840;2024-03-07T05:59:02;5.81;72.27
69531;SHT31;56727;47.188;8.840;2024-03-07T06:01:38;5.84;72.42
69531;SHT31;56727;47.188;8.840;2024-03-07T06:04:06;5.89;72.54
69531;SHT31;56727;47.188;8.840;2024-03-07T06:06:34;5.90;72.54
69531;SHT31;56727;47.188;8.840;2024-03-07T06:09:02;5.93;72.49
69531;SHT31;56727;47.188;8.840;2024-03-07T06:11:34;5.97;72.37
69531;SHT31;56727;47.188;8.840;2024-03-07T06:14:05;5.99;72.17
69531;SHT31;56727;47.188;8.840;2024-03-07T06:16:33;6.01;72.06
69531;SHT31;56727;47.188;8.840;2024-03-07T06:19:04;6.07;71.80
69531;SHT31;56727;47.188;8.840;2024-03-07T06:21:34;6.08;71.73
69531;SHT31;56727;47.188;8.840;2024-03-07T06:24:03;6.07;71.67
69531;SHT31;56727;47.188;8.840;2024-03-07T06:26:31;6.07;71.64
69531;SHT31;56727;47.188;8.840;2024-03-07T06:29:12;6.06;71.61
69531;SHT31;56727;47.188;8.840;2024-03-07T06:31:43;6.03;71.63
69531;SHT31;56727;47.188;8.840;2024-03-07T06:34:14;6.03;71.67
69531;SHT31;56727;47.188;8.840;2024-03-07T06:36:41;6.05;71.55
69531;SHT31;56727;47.188;8.840;2024-03-07T06:39:07;6.02;71.52
69531;SHT31;56727;47.188;8.840;2024-03-07T06:41:36;6.04;71.49
69531;SHT31;56727;47.188;8.840;2024-03-07T06:44:03;6.07;71.46
69531;SHT31;56727;47.188;8.840;2024-03-07T06:46:30;6.12;71.38
69531;SHT31;56727;47.188;8.840;2024-03-07T06:49:00;6.20;71.51
69531;SHT31;56727;47.188;8.840;2024-03-07T06:51:27;6.24;71.75
69531;SHT31;56727;47.188;8.840;2024-03-07T06:53:54;6.29;71.91
69531;SHT31;56727;47.188;8.840;2024-03-07T06:56:22;6.37;71.95
69531;SHT31;56727;47.188;8.840;2024-03-07T06:58:50;6.46;71.93
69531;SHT31;56727;47.188;8.840;2024-03-07T07:01:16;6.56;71.95
69531;SHT31;56727;47.188;8.840;2024-03-07T07:03:44;6.68;71.94
69531;SHT31;56727;47.188;8.840;2024-03-07T07:06:11;6.80;71.85
69531;SHT31;56727;47.188;8.840;2024-03-07T07:08:38;6.89;71.56
69531;SHT31;56727;47.188;8.840;2024-03-07T07:11:05;6.97;71.30
69531;SHT31;56727;47.188;8.840;2024-03-07T07:13:31;7.07;71.07
69531;SHT31;56727;47.188;8.840;2024-03-07T07:15:58;7.16;70.81
69531;SHT31;56727;47.188;8.840;2024-03-07T07:18:25;7.28;70.59
69531;SHT31;56727;47.188;8.840;2024-03-07T07:20:52;7.46;70.39
69531;SHT31;56727;47.188;8.840;2024-03-07T07:23:18;7.57;70.20
69531;SHT31;56727;47.188;8.840;2024-03-07T07:25:46;7.69;70.07
69531;SHT31;56727;47.188;8.840;2024-03-07T07:28:13;7.80;69.79
69531;SHT31;56727;47.188;8.840;2024-03-07T07:30:41;8.01;69.53
69531;SHT31;56727;47.188;8.840;2024-03-07T07:33:08;8.69;69.19
69531;SHT31;56727;47.188;8.840;2024-03-07T07:35:35;9.58;68.33
69531;SHT31;56727;47.188;8.840;2024-03-07T07:38:02;9.60;68.05
69531;SHT31;56727;47.188;8.840;2024-03-07T07:40:28;9.47;67.89
69531;SHT31;56727;47.188;8.840;2024-03-07T07:42:57;9.32;67.80
69531;SHT31;56727;47.188;8.840;2024-03-07T07:45:24;9.23;67.80
69531;SHT31;56727;47.188;8.840;2024-03-07T07:47:51;9.18;67.61
69531;SHT31;56727;47.188;8.840;2024-03-07T07:50:19;9.16;67.62
69531;SHT31;56727;47.188;8.840;2024-03-07T07:52:50;9.27;67.52
69531;SHT31;56727;47.188;8.840;2024-03-07T07:55:20;9.60;67.29
69531;SHT31;56727;47.188;8.840;2024-03-07T07:57:50;10.64;66.53
69531;SHT31;56727;47.188;8.840;2024-03-07T08:00:19;11.81;65.41
69531;SHT31;56727;47.188;8.840;2024-03-07T08:02:49;12.17;64.99
69531;SHT31;56727;47.188;8.840;2024-03-07T08:05:19;12.16;64.61
69531;SHT31;56727;47.188;8.840;2024-03-07T08:07:49;12.01;64.25
69531;SHT31;56727;47.188;8.840;2024-03-07T08:10:22;12.08;63.84
69531;SHT31;56727;47.188;8.840;2024-03-07T08:12:57;11.76;63.42
69531;SHT31;56727;47.188;8.840;2024-03-07T08:15:25;11.35;63.73
69531;SHT31;56727;47.188;8.840;2024-03-07T08:17:54;11.01;64.00
69531;SHT31;56727;47.188;8.840;2024-03-07T08:20:23;10.71;64.12
69531;SHT31;56727;47.188;8.840;2024-03-07T08:22:55;10.50;64.30
69531;SHT31;56727;47.188;8.840;2024-03-07T08:25:23;10.35;64.24
69531;SHT31;56727;47.188;8.840;2024-03-07T08:27:52;10.22;63.98
69531;SHT31;56727;47.188;8.840;2024-03-07T08:30:20;10.10;63.56
69531;SHT31;56727;47.188;8.840;2024-03-07T08:32:49;10.05;63.22
69531;SHT31;56727;47.188;8.840;2024-03-07T08:35:20;10.02;63.07
69531;SHT31;56727;47.188;8.840;2024-03-07T08:37:48;10.00;62.87
69531;SHT31;56727;47.188;8.840;2024-03-07T08:40:19;10.03;63.07
69531;SHT31;56727;47.188;8.840;2024-03-07T08:42:49;10.06;62.78
69531;SHT31;56727;47.188;8.840;2024-03-07T08:45:20;10.02;62.82
69531;SHT31;56727;47.188;8.840;2024-03-07T08:47:51;9.94;62.66
69531;SHT31;56727;47.188;8.840;2024-03-07T08:50:23;9.90;62.95
69531;SHT31;56727;47.188;8.840;2024-03-07T08:52:51;9.92;62.93
69531;SHT31;56727;47.188;8.840;2024-03-07T08:55:19;10.03;62.84
69531;SHT31;56727;47.188;8.840;2024-03-07T08:57:48;10.09;62.49
69531;SHT31;56727;47.188;8.840;2024-03-07T09:00:16;10.12;62.65
69531;SHT31;56727;47.188;8.840;2024-03-07T09:02:54;10.38;62.43
69531;SHT31;56727;47.188;8.840;2024-03-07T09:05:29;10.81;62.18
69531;SHT31;56727;47.188;8.840;2024-03-07T09:07:59;11.16;62.25
69531;SHT31;56727;47.188;8.840;2024-03-07T09:10:26;11.42;62.35
69531;SHT31;56727;47.188;8.840;2024-03-07T09:12:55;11.49;62.29
69531;SHT31;56727;47.188;8.840;2024-03-07T09:15:23;11.34;62.31
69531;SHT31;56727;47.188;8.840;2024-03-07T09:17:49;11.20;62.38
69531;SHT31;56727;47.188;8.840;2024-03-07T09:20:17;11.10;62.23
69531;SHT31;56727;47.188;8.840;2024-03-07T09:22:45;11.02;62.12
69531;SHT31;56727;47.188;8.840;2024-03-07T09:25:17;10.99;61.96
69531;SHT31;56727;47.188;8.840;2024-03-07T09:27:44;11.09;61.51
69531;SHT31;56727;47.188;8.840;2024-03-07T09:30:11;11.12;61.18
69531;SHT31;56727;47.188;8.840;2024-03-07T09:32:41;11.14;61.32
69531;SHT31;56727;47.188;8.840;2024-03-07T09:35:08;11.10;61.15
69531;SHT31;56727;47.188;8.840;2024-03-07T09:37:40;11.04;61.31
69531;SHT31;56727;47.188;8.840;2024-03-07T09:40:08;11.06;61.27
69531;SHT31;56727;47.188;8.840;2024-03-07T09:42:43;11.07;61.36
69531;SHT31;56727;47.188;8.840;2024-03-07T09:45:14;11.09;61.39
69531;SHT31;56727;47.188;8.840;2024-03-07T09:47:47;11.13;61.38
69531;SHT31;56727;47.188;8.840;2024-03-07T09:50:16;11.17;61.28
69531;SHT31;56727;47.188;8.840;2024-03-07T09:52:52;11.24;61.17
69531;SHT31;56727;47.188;8.840;2024-03-07T09:55:19;11.31;60.94
69531;SHT31;56727;47.188;8.840;2024-03-07T09:57:47;11.42;60.81
69531;SHT31;56727;47.188;8.840;2024-03-07T10:00:16;11.51;60.42
69531;SHT31;56727;47.188;8.840;2024-03-07T10:02:53;11.53;59.95
69531;SHT31;56727;47.188;8.840;2024-03-07T10:05:26;11.50;60.01
69531;SHT31;56727;47.188;8.840;2024-03-07T10:07:54;11.47;59.56
69531;SHT31;56727;47.188;8.840;2024-03-07T10:10:21;11.46;59.69
69531;SHT31;56727;47.188;8.840;2024-03-07T10:12:51;11.44;59.76
69531;SHT31;56727;47.188;8.840;2024-03-07T10:15:19;11.35;59.73
69531;SHT31;56727;47.188;8.840;2024-03-07T10:17:46;11.29;59.42
69531;SHT31;56727;47.188;8.840;2024-03-07T10:20:13;11.23;59.58
69531;SHT31;56727;47.188;8.840;2024-03-07T10:22:46;11.20;59.41
69531;SHT31;56727;47.188;8.840;2024-03-07T10:25:13;11.19;59.14
69531;SHT31;56727;47.188;8.840;2024-03-07T10:27:40;11.15;58.98
69531;SHT31;56727;47.188;8.840;2024-03-07T10:30:08;11.11;59.31
69531;SHT31;56727;47.188;8.840;2024-03-07T10:32:36;11.09;59.37
69531;SHT31;56727;47.188;8.840;2024-03-07T10:35:03;11.10;59.38
69531;SHT31;56727;47.188;8.840;2024-03-07T10:37:34;11.11;59.08
69531;SHT31;56727;47.188;8.840;2024-03-07T10:40:02;11.07;59.16
69531;SHT31;56727;47.188;8.840;2024-03-07T10:42:45;11.06;59.18
69531;SHT31;56727;47.188;8.840;2024-03-07T10:45:21;11.06;58.65
69531;SHT31;56727;47.188;8.840;2024-03-07T10:47:54;11.02;58.96
69531;SHT31;56727;47.188;8.840;2024-03-07T10:57:39;11.10;59.03
69531;SHT31;56727;47.188;8.840;2024-03-07T11:00:07;11.08;58.91
69531;SHT31;56727;47.188;8.840;2024-03-07T11:02:56;11.09;58.93
69531;SHT31;56727;47.188;8.840;2024-03-07T11:05:26;11.06;58.70
69531;SHT31;56727;47.188;8.840;2024-03-07T11:07:58;11.06;58.73
69531;SHT31;56727;47.188;8.840;2024-03-07T11:10:37;11.07;58.66
69531;SHT31;56727;47.188;8.840;2024-03-07T11:13:06;11.11;58.71
69531;SHT31;56727;47.188;8.840;2024-03-07T11:15:39;11.19;58.72
69531;SHT31;56727;47.188;8.840;2024-03-07T11:18:10;11.29;58.53
69531;SHT31;56727;47.188;8.840;2024-03-07T11:20:39;11.35;58.48
69531;SHT31;56727;47.188;8.840;2024-03-07T11:26:05;11.42;58.29
69531;SHT31;56727;47.188;8.840;2024-03-07T11:28:34;11.43;58.06
69531;SHT31;56727;47.188;8.840;2024-03-07T11:34:13;11.55;58.20
69531;SHT31;56727;47.188;8.840;2024-03-07T11:36:42;11.59;57.50
69531;SHT31;56727;47.188;8.840;2024-03-07T11:42:09;11.61;57.74
69531;SHT31;56727;47.188;8.840;2024-03-07T11:44:56;11.60;57.93
69531;SHT31;56727;47.188;8.840;2024-03-07T11:47:25;11.61;57.86
69531;SHT31;56727;47.188;8.840;2024-03-07T11:49:56;11.63;57.66
69531;SHT31;56727;47.188;8.840;2024-03-07T11:52:24;11.67;57.82
69531;SHT31;56727;47.188;8.840;2024-03-07T11:54:53;11.75;57.62
69531;SHT31;56727;47.188;8.840;2024-03-07T11:57:23;11.78;57.21
69531;SHT31;56727;47.188;8.840;2024-03-07T11:59:59;11.75;57.42
69531;SHT31;56727;47.188;8.840;2024-03-07T12:02:37;11.75;57.55
69531;SHT31;56727;47.188;8.840;2024-03-07T12:05:05;11.75;57.17
69531;SHT31;56727;47.188;8.840;2024-03-07T12:07:33;11.70;56.77
69531;SHT31;56727;47.188;8.840;2024-03-07T12:10:01;11.69;57.19
69531;SHT31;56727;47.188;8.840;2024-03-07T12:12:32;11.71;57.24
69531;SHT31;56727;47.188;8.840;2024-03-07T12:15:00;11.76;57.02
69531;SHT31;56727;47.188;8.840;2024-03-07T12:17:32;11.80;56.92
69531;SHT31;56727;47.188;8.840;2024-03-07T12:19:58;11.78;56.86
69531;SHT31;56727;47.188;8.840;2024-03-07T12:22:28;11.79;56.76
69531;SHT31;56727;47.188;8.840;2024-03-07T12:24:59;11.74;56.73
69531;SHT31;56727;47.188;8.840;2024-03-07T12:27:34;11.67;56.86
69531;SHT31;56727;47.188;8.840;2024-03-07T12:30:00;11.64;56.85
69531;SHT31;56727;47.188;8.840;2024-03-07T12:32:34;11.61;56.85
69531;SHT31;56727;47.188;8.840;2024-03-07T12:35:03;11.58;56.40
69531;SHT31;56727;47.188;8.840;2024-03-07T12:37:34;11.53;56.73
69531;SHT31;56727;47.188;8.840;2024-03-07T12:40:10;11.52;56.86
69531;SHT31;56727;47.188;8.840;2024-03-07T12:42:45;11.54;56.65
69531;SHT31;56727;47.188;8.840;2024-03-07T12:45:17;11.52;56.51
69531;SHT31;56727;47.188;8.840;2024-03-07T12:47:48;11.50;56.67
69531;SHT31;56727;47.188;8.840;2024-03-07T12:50:18;11.48;56.70
69531;SHT31;56727;47.188;8.840;2024-03-07T12:52:48;11.48;56.68
69531;SHT31;56727;47.188;8.840;2024-03-07T12:55:18;11.50;56.75
69531;SHT31;56727;47.188;8.840;2024-03-07T12:57:45;11.55;56.53
69531;SHT31;56727;47.188;8.840;2024-03-07T13:00:11;11.58;56.49
69531;SHT31;56727;47.188;8.840;2024-03-07T13:02:46;11.60;56.45
69531;SHT31;56727;47.188;8.840;2024-03-07T13:05:13;11.60;56.29
69531;SHT31;56727;47.188;8.840;2024-03-07T13:07:47;11.50;55.90
69531;SHT31;56727;47.188;8.840;2024-03-07T13:10:15;11.40;56.33
69531;SHT31;56727;47.188;8.840;2024-03-07T13:12:44;11.37;56.27
69531;SHT31;56727;47.188;8.840;2024-03-07T13:15:12;11.37;56.38
69531;SHT31;56727;47.188;8.840;2024-03-07T13:17:38;11.38;56.42
69531;SHT31;56727;47.188;8.840;2024-03-07T13:20:06;11.40;56.41
69531;SHT31;56727;47.188;8.840;2024-03-07T13:22:38;11.40;56.42
69531;SHT31;56727;47.188;8.840;2024-03-07T13:25:13;11.38;56.25
69531;SHT31;56727;47.188;8.840;2024-03-07T13:28:12;11.35;56.36
69531;SHT31;56727;47.188;8.840;2024-03-07T13:30:43;11.36;56.50
69531;SHT31;56727;47.188;8.840;2024-03-07T13:33:14;11.36;56.40
69531;SHT31;56727;47.188;8.840;2024-03-07T13:35:41;11.35;56.44
69531;SHT31;56727;47.188;8.840;2024-03-07T13:38:08;11.36;56.38
69531;SHT31;56727;47.188;8.840;2024-03-07T13:40:35;11.36;56.30
69531;SHT31;56727;47.188;8.840;2024-03-07T13:43:05;11.37;56.27
69531;SHT31;56727;47.188;8.840;2024-03-07T13:45:34;11.39;56.22
69531;SHT31;56727;47.188;8.840;2024-03-07T13:48:07;11.44;56.37
69531;SHT31;56727;47.188;8.840;2024-03-07T13:50:36;11.47;56.29
69531;SHT31;56727;47.188;8.840;2024-03-07T13:53:15;11.44;56.25
69531;SHT31;56727;47.188;8.840;2024-03-07T13:55:55;11.36;56.22
69531;SHT31;56727;47.188;8.840;2024-03-07T14:02:50;11.25;56.61
69531;SHT31;56727;47.188;8.840;2024-03-07T14:08:55;11.15;56.90
69531;SHT31;56727;47.188;8.840;2024-03-07T14:12:17;11.14;57.08
69531;SHT31;56727;47.188;8.840;2024-03-07T14:36:53;10.74;57.60
69531;SHT31;56727;47.188;8.840;2024-03-07T14:39:30;10.70;57.74
69531;SHT31;56727;47.188;8.840;2024-03-07T14:42:01;10.70;57.71
69531;SHT31;56727;47.188;8.840;2024-03-07T14:44:42;10.69;57.71
69531;SHT31;56727;47.188;8.840;2024-03-07T14:47:12;10.69;57.78
69531;SHT31;56727;47.188;8.840;2024-03-07T14:49:40;10.69;57.70
69531;SHT31;56727;47.188;8.840;2024-03-07T14:52:07;10.65;57.56
69531;SHT31;56727;47.188;8.840;2024-03-07T14:54:38;10.58;57.64
69531;SHT31;56727;47.188;8.840;2024-03-07T14:57:05;10.54;57.76
69531;SHT31;56727;47.188;8.840;2024-03-07T14:59:31;10.52;57.82
69531;SHT31;56727;47.188;8.840;2024-03-07T15:01:58;10.51;57.84
69531;SHT31;56727;47.188;8.840;2024-03-07T15:04:29;10.47;57.82
69531;SHT31;56727;47.188;8.840;2024-03-07T15:06:59;10.45;57.85
69531;SHT31;56727;47.188;8.840;2024-03-07T15:09:28;10.46;57.80
69531;SHT31;56727;47.188;8.840;2024-03-07T15:11:56;10.43;57.72
69531;SHT31;56727;47.188;8.840;2024-03-07T15:14:23;10.42;57.74
69531;SHT31;56727;47.188;8.840;2024-03-07T15:16:50;10.41;57.72
69531;SHT31;56727;47.188;8.840;2024-03-07T15:19:16;10.39;57.78
69531;SHT31;56727;47.188;8.840;2024-03-07T15:21:44;10.39;57.73
69531;SHT31;56727;47.188;8.840;2024-03-07T15:24:12;10.35;57.77
69531;SHT31;56727;47.188;8.840;2024-03-07T15:26:39;10.30;57.89
69531;SHT31;56727;47.188;8.840;2024-03-07T15:29:05;10.25;57.98
69531;SHT31;56727;47.188;8.840;2024-03-07T15:31:33;10.24;57.97
69531;SHT31;56727;47.188;8.840;2024-03-07T15:34:00;10.24;58.04
69531;SHT31;56727;47.188;8.840;2024-03-07T15:36:26;10.22;57.97
69531;SHT31;56727;47.188;8.840;2024-03-07T15:38:54;10.20;57.94
69531;SHT31;56727;47.188;8.840;2024-03-07T15:41:23;10.20;58.00
69531;SHT31;56727;47.188;8.840;2024-03-07T15:43:51;10.21;57.98
69531;SHT31;56727;47.188;8.840;2024-03-07T15:46:17;10.16;57.80
69531;SHT31;56727;47.188;8.840;2024-03-07T15:48:44;10.13;57.90
69531;SHT31;56727;47.188;8.840;2024-03-07T15:51:14;10.07;57.95
69531;SHT31;56727;47.188;8.840;2024-03-07T15:53:40;10.06;58.04
69531;SHT31;56727;47.188;8.840;2024-03-07T15:56:08;10.06;58.06
69531;SHT31;56727;47.188;8.840;2024-03-07T15:58:35;10.08;58.06
69531;SHT31;56727;47.188;8.840;2024-03-07T16:01:02;10.09;58.06
69531;SHT31;56727;47.188;8.840;2024-03-07T16:03:29;10.11;58.06
69531;SHT31;56727;47.188;8.840;2024-03-07T16:05:56;10.14;57.99
69531;SHT31;56727;47.188;8.840;2024-03-07T16:08:22;10.15;57.93
69531;SHT31;56727;47.188;8.840;2024-03-07T16:10:50;10.15;57.88
69531;SHT31;56727;47.188;8.840;2024-03-07T16:13:18;10.13;57.89
69531;SHT31;56727;47.188;8.840;2024-03-07T16:15:45;10.13;57.94
69531;SHT31;56727;47.188;8.840;2024-03-07T16:18:13;10.13;57.96
69531;SHT31;56727;47.188;8.840;2024-03-07T16:20:43;10.15;57.97
69531;SHT31;56727;47.188;8.840;2024-03-07T16:23:12;10.16;58.05
69531;SHT31;56727;47.188;8.840;2024-03-07T16:25:41;10.18;58.28
69531;SHT31;56727;47.188;8.840;2024-03-07T16:28:08;10.20;58.58
69531;SHT31;56727;47.188;8.840;2024-03-07T16:30:37;10.18;58.79
69531;SHT31;56727;47.188;8.840;2024-03-07T16:33:05;10.17;58.83
69531;SHT31;56727;47.188;8.840;2024-03-07T16:35:32;10.15;59.03
69531;SHT31;56727;47.188;8.840;2024-03-07T16:37:59;10.12;59.17